createdAt,value
2022-08-09T00:00:07.225Z,2.30
2022-08-09T00:02:34.997Z,2.95
2022-08-09T00:06:11.799Z,2.55
2022-08-09T00:07:49.046Z,2.80
2022-08-09T00:10:21.109Z,2.70
2022-08-09T00:12:52.443Z,1.90
2022-08-09T00:15:19.724Z,2.40
2022-08-09T00:18:04.500Z,3.53
2022-08-09T00:20:36.157Z,2.63
2022-08-09T00:23:54.108Z,2.80
2022-08-09T00:25:51.797Z,5.32
2022-08-09T00:28:19.261Z,2.60
2022-08-09T00:30:50.282Z,2.72
2022-08-09T00:33:17.094Z,2.70
2022-08-09T00:35:43.840Z,2.25
2022-08-09T00:38:12.720Z,2.80
2022-08-09T00:40:52.419Z,3.80
2022-08-09T00:44:14.503Z,2.80
2022-08-09T00:46:09.352Z,3.55
2022-08-09T00:48:36.766Z,3.67
2022-08-09T00:51:10.433Z,3.08
2022-08-09T00:53:39.880Z,3.53
2022-08-09T00:56:09.482Z,3.00
2022-08-09T00:58:36.926Z,3.00
2022-08-09T01:01:11.328Z,2.80
2022-08-09T01:04:13.972Z,3.25
2022-08-09T01:07:02.118Z,2.90
2022-08-09T01:09:39.209Z,2.53
2022-08-09T01:12:18.681Z,2.65
2022-08-09T01:14:52.549Z,2.90
2022-08-09T01:20:18.869Z,2.97
2022-08-09T01:24:03.363Z,2.47
2022-08-09T01:26:29.824Z,3.20
2022-08-09T01:28:58.089Z,2.63
2022-08-09T01:32:30.873Z,2.92
2022-08-09T01:34:17.376Z,2.63
2022-08-09T01:36:45.273Z,2.75
2022-08-09T01:39:13.720Z,2.60
2022-08-09T01:41:55.939Z,2.70
2022-08-09T01:44:28.168Z,2.42
2022-08-09T01:46:54.729Z,2.85
2022-08-09T01:49:24.025Z,2.55
2022-08-09T01:51:55.927Z,4.13
2022-08-09T01:54:44.674Z,3.00
2022-08-09T01:57:15.697Z,2.70
2022-08-09T01:59:52.165Z,2.65
2022-08-09T02:02:30.909Z,2.90
2022-08-09T02:05:04.685Z,3.50
2022-08-09T02:08:39.897Z,2.80
2022-08-09T02:10:28.615Z,3.05
2022-08-09T02:12:57.664Z,2.70
2022-08-09T02:15:27.022Z,3.03
2022-08-09T02:18:14.308Z,4.28
2022-08-09T02:20:44.348Z,2.90
2022-08-09T02:23:19.161Z,3.17
2022-08-09T02:25:52.734Z,3.30
2022-08-09T02:28:41.044Z,3.92
2022-08-09T02:31:18.108Z,3.70
2022-08-09T02:34:07.212Z,3.47
2022-08-09T02:36:42.259Z,4.32
2022-08-09T02:39:14.449Z,4.30
2022-08-09T02:41:50.733Z,3.90
2022-08-09T02:44:29.168Z,4.60
2022-08-09T02:46:58.473Z,3.97
2022-08-09T02:49:38.321Z,3.70
2022-08-09T02:52:09.924Z,3.42
2022-08-09T02:54:54.704Z,3.83
2022-08-09T02:57:23.457Z,3.60
2022-08-09T03:00:25.223Z,3.42
2022-08-09T03:02:39.162Z,3.25
2022-08-09T03:05:25.209Z,3.58
2022-08-09T03:07:55.366Z,3.17
2022-08-09T03:10:23.080Z,3.63
2022-08-09T03:12:52.204Z,3.00
2022-08-09T03:15:20.621Z,4.00
2022-08-09T03:17:53.818Z,4.05
2022-08-09T03:20:25.159Z,3.22
2022-08-09T03:22:58.393Z,3.58
2022-08-09T03:25:58.352Z,2.92
2022-08-09T03:28:30.421Z,2.92
2022-08-09T03:30:57.472Z,2.83
2022-08-09T03:33:25.791Z,2.92
2022-08-09T03:36:16.241Z,2.78
2022-08-09T03:38:44.661Z,2.90
2022-08-09T03:41:14.673Z,3.67
2022-08-09T03:43:41.584Z,2.72
2022-08-09T03:46:20.075Z,3.10
2022-08-09T03:48:58.034Z,3.88
2022-08-09T03:51:43.626Z,2.90
2022-08-09T03:54:14.131Z,2.70
2022-08-09T03:56:41.726Z,3.13
2022-08-09T03:59:17.213Z,3.13
2022-08-09T04:01:56.538Z,2.90
2022-08-09T04:04:26.775Z,3.13
2022-08-09T04:07:03.701Z,2.85
2022-08-09T04:09:41.883Z,3.00
2022-08-09T04:12:30.930Z,4.05
2022-08-09T04:15:01.726Z,2.47
2022-08-09T04:17:39.571Z,3.13
2022-08-09T04:20:10.871Z,2.90
2022-08-09T04:22:41.083Z,3.22
2022-08-09T04:25:10.608Z,4.45
2022-08-09T04:27:41.527Z,3.20
2022-08-09T04:30:15.831Z,3.80
2022-08-09T04:32:46.740Z,2.83
2022-08-09T04:35:14.385Z,2.88
2022-08-09T04:37:45.727Z,3.13
2022-08-09T04:40:28.614Z,3.13
2022-08-09T04:43:01.025Z,3.05
2022-08-09T04:45:30.390Z,3.78
2022-08-09T04:48:03.053Z,3.55
2022-08-09T04:50:33.714Z,3.60
2022-08-09T04:55:57.530Z,4.10
2022-08-09T04:58:25.682Z,3.75
2022-08-09T05:00:52.644Z,3.97
2022-08-09T05:03:40.190Z,3.65
2022-08-09T05:06:08.546Z,3.53
2022-08-09T05:08:35.468Z,3.50
2022-08-09T05:11:02.905Z,4.00
2022-08-09T05:13:33.226Z,3.75
2022-08-09T05:16:00.438Z,4.00
2022-08-09T05:18:55.366Z,4.20
2022-08-09T05:21:23.166Z,4.05
2022-08-09T05:23:58.084Z,3.75
2022-08-09T05:26:37.252Z,4.30
2022-08-09T05:29:22.817Z,4.05
2022-08-09T05:31:57.500Z,3.45
2022-08-09T05:36:58.434Z,2.63
2022-08-09T05:39:29.931Z,3.88
2022-08-09T05:42:04.331Z,3.58
2022-08-09T05:44:32.792Z,4.10
2022-08-09T05:46:59.784Z,4.45
2022-08-09T05:50:31.204Z,4.45
2022-08-09T05:52:13.224Z,4.32
2022-08-09T05:54:39.994Z,3.75
2022-08-09T05:57:07.569Z,3.28
2022-08-09T05:59:39.381Z,3.65
2022-08-09T06:02:09.056Z,4.20
2022-08-09T06:04:36.746Z,3.47
2022-08-09T06:07:04.169Z,3.85
2022-08-09T06:10:01.928Z,4.13
2022-08-09T06:12:17.213Z,4.03
2022-08-09T06:14:43.707Z,3.35
2022-08-09T06:17:10.400Z,3.40
2022-08-09T06:19:37.023Z,3.53
2022-08-09T06:22:04.550Z,3.30
2022-08-09T06:24:31.271Z,3.35
2022-08-09T06:26:58.034Z,3.47
2022-08-09T06:29:26.858Z,2.67
2022-08-09T06:32:08.874Z,2.78
2022-08-09T06:34:40.190Z,2.80
2022-08-09T06:37:10.069Z,5.35
2022-08-09T06:39:48.422Z,5.25
2022-08-09T06:42:24.786Z,5.68
2022-08-09T06:44:55.358Z,4.65
2022-08-09T06:47:24.156Z,12.68
2022-08-09T06:50:14.643Z,3.10
2022-08-09T06:52:46.876Z,3.35
2022-08-09T06:55:15.281Z,2.72
2022-08-09T06:58:03.388Z,2.53
2022-08-09T07:00:51.713Z,2.42
2022-08-09T07:03:16.366Z,1.85
2022-08-09T07:06:02.261Z,4.55
2022-08-09T07:08:30.562Z,1.50
2022-08-09T07:10:57.333Z,2.25
2022-08-09T07:13:29.397Z,2.70
2022-08-09T07:16:43.303Z,3.40
2022-08-09T07:18:44.188Z,4.45
2022-08-09T07:21:14.198Z,1.48
2022-08-09T07:23:56.313Z,1.65
2022-08-09T07:26:24.040Z,2.13
2022-08-09T07:29:08.879Z,1.65
2022-08-09T07:31:38.417Z,1.65
2022-08-09T07:34:05.383Z,1.52
2022-08-09T07:36:35.970Z,1.40
2022-08-09T07:39:02.965Z,1.23
2022-08-09T07:41:32.964Z,1.35
2022-08-09T07:44:05.330Z,1.30
2022-08-09T07:46:31.817Z,1.10
2022-08-09T07:48:59.210Z,1.70
2022-08-09T07:52:05.750Z,1.20
2022-08-09T07:54:14.141Z,1.20
2022-08-09T07:56:48.743Z,1.77
2022-08-09T07:59:25.426Z,1.27
2022-08-09T08:02:00.965Z,1.00
2022-08-09T08:04:32.094Z,1.02
2022-08-09T08:07:00.246Z,0.85
2022-08-09T08:09:45.762Z,0.90
2022-08-09T08:12:28.394Z,1.00
2022-08-09T08:14:56.939Z,0.90
2022-08-09T08:17:35.258Z,0.70
2022-08-09T08:20:12.536Z,1.38
2022-08-09T08:22:40.515Z,1.00
2022-08-09T08:25:13.657Z,0.93
2022-08-09T08:27:43.112Z,0.82
2022-08-09T08:30:11.348Z,0.88
2022-08-09T08:32:52.366Z,0.90
2022-08-09T08:35:19.886Z,1.00
2022-08-09T08:37:59.706Z,7.65
2022-08-09T08:40:32.250Z,4.07
2022-08-09T08:42:59.010Z,2.63
2022-08-09T08:45:53.469Z,0.90
2022-08-09T08:48:31.877Z,1.65
2022-08-09T08:50:58.727Z,0.68
2022-08-09T08:53:32.150Z,0.80
2022-08-09T08:56:04.694Z,0.60
2022-08-09T08:58:33.302Z,1.05
2022-08-09T09:01:09.182Z,1.15
2022-08-09T09:03:53.170Z,1.63
2022-08-09T09:06:22.844Z,1.02
2022-08-09T09:08:52.643Z,2.97
2022-08-09T09:11:34.262Z,2.50
2022-08-09T09:14:22.808Z,0.80
2022-08-09T09:16:50.714Z,0.85
2022-08-09T09:19:37.534Z,0.90
2022-08-09T09:22:11.606Z,1.80
2022-08-09T09:24:59.129Z,0.95
2022-08-09T09:28:03.519Z,1.75
2022-08-09T09:30:41.385Z,1.00
2022-08-09T09:33:15.912Z,0.60
2022-08-09T09:36:02.276Z,0.52
2022-08-09T09:38:51.011Z,0.77
2022-08-09T09:41:33.513Z,0.70
2022-08-09T09:44:11.694Z,0.50
2022-08-09T09:46:45.986Z,1.83
2022-08-09T09:49:23.509Z,0.60
2022-08-09T09:52:16.524Z,1.02
2022-08-09T09:55:16.370Z,0.52
2022-08-09T09:58:03.460Z,0.60
2022-08-09T10:00:55.205Z,0.70
2022-08-09T10:03:38.129Z,1.50
2022-08-09T10:06:06.304Z,0.65
2022-08-09T10:08:32.862Z,0.70
2022-08-09T10:11:59.074Z,0.93
2022-08-09T10:14:34.910Z,2.45
2022-08-09T10:17:54.875Z,7.85
2022-08-09T10:20:00.038Z,1.70
2022-08-09T10:22:37.348Z,0.60
2022-08-09T10:25:11.903Z,0.68
2022-08-09T10:27:56.516Z,0.77
2022-08-09T10:34:07.934Z,1.13
2022-08-09T10:36:01.285Z,0.80
2022-08-09T10:38:54.771Z,0.77
2022-08-09T10:41:16.994Z,0.82
2022-08-09T10:43:59.661Z,0.68
2022-08-09T10:46:57.328Z,0.60
2022-08-09T10:49:50.229Z,0.50
2022-08-09T10:52:42.780Z,0.60
2022-08-09T10:55:21.288Z,0.70
2022-08-09T10:57:51.921Z,1.17
2022-08-09T11:00:31.118Z,0.77
2022-08-09T11:03:14.671Z,0.60
2022-08-09T11:06:16.769Z,1.42
2022-08-09T11:08:47.230Z,0.60
2022-08-09T11:11:16.239Z,0.50
2022-08-09T11:13:50.966Z,0.93
2022-08-09T11:16:40.785Z,0.85
2022-08-09T11:19:10.102Z,0.77
2022-08-09T11:21:57.568Z,0.60
2022-08-09T11:25:02.084Z,0.60
2022-08-09T11:28:04.128Z,0.68
2022-08-09T11:30:33.005Z,1.38
2022-08-09T11:33:07.488Z,0.70
2022-08-09T11:35:53.515Z,1.38
2022-08-09T11:38:35.129Z,0.57
2022-08-09T11:41:13.161Z,1.30
2022-08-09T11:43:47.214Z,0.80
2022-08-09T11:46:26.508Z,0.60
2022-08-09T11:48:59.626Z,1.40
2022-08-09T11:52:56.751Z,1.92
2022-08-09T11:54:28.173Z,0.70
2022-08-09T11:57:47.552Z,2.13
2022-08-09T12:00:29.510Z,0.98
2022-08-09T12:02:58.757Z,1.92
2022-08-09T12:05:42.345Z,0.55
2022-08-09T12:08:21.716Z,0.80
2022-08-09T12:10:53.085Z,0.98
2022-08-09T12:14:09.251Z,0.60
2022-08-09T12:16:37.845Z,0.70
2022-08-09T12:19:08.497Z,0.50
2022-08-09T12:21:51.455Z,0.70
2022-08-09T12:24:26.191Z,0.77
2022-08-09T12:29:09.708Z,1.02
2022-08-09T12:30:03.630Z,0.65
2022-08-09T12:32:40.682Z,0.75
2022-08-09T12:35:12.687Z,0.68
2022-08-09T12:37:50.411Z,1.45
2022-08-09T12:40:18.849Z,0.50
2022-08-09T12:42:45.718Z,0.60
2022-08-09T12:45:32.527Z,0.43
2022-08-09T12:47:59.524Z,0.68
2022-08-09T12:50:27.196Z,0.90
2022-08-09T12:53:08.934Z,0.70
2022-08-09T12:56:12.694Z,0.70
2022-08-09T12:58:28.694Z,0.70
2022-08-09T13:00:56.333Z,0.75
2022-08-09T13:03:56.773Z,0.70
2022-08-09T13:06:35.444Z,1.95
2022-08-09T13:09:15.412Z,1.02
2022-08-09T13:11:45.635Z,0.88
2022-08-09T13:14:42.916Z,0.52
2022-08-09T13:17:02.856Z,0.70
2022-08-09T13:20:09.600Z,1.23
2022-08-09T13:23:00.321Z,0.88
2022-08-09T13:25:11.886Z,1.73
2022-08-09T13:27:54.343Z,1.75
2022-08-09T13:30:48.916Z,0.80
2022-08-09T13:33:11.609Z,0.75
2022-08-09T13:36:37.534Z,1.20
2022-08-09T13:38:54.287Z,1.10
2022-08-09T13:41:51.801Z,0.80
2022-08-09T13:44:09.794Z,0.80
2022-08-09T13:47:29.520Z,2.15
2022-08-09T13:49:37.556Z,0.77
2022-08-09T13:52:05.295Z,1.38
2022-08-09T13:54:36.074Z,0.98
2022-08-09T13:57:09.374Z,0.70
2022-08-09T13:59:42.204Z,0.80
2022-08-09T14:02:09.963Z,0.85
2022-08-09T14:04:36.668Z,3.28
2022-08-09T14:07:03.648Z,0.77
2022-08-09T14:09:30.306Z,0.70
2022-08-09T14:12:02.078Z,2.35
2022-08-09T14:14:35.022Z,0.77
2022-08-09T14:17:01.715Z,0.80
2022-08-09T14:19:30.282Z,1.75
2022-08-09T14:21:59.912Z,0.75
2022-08-09T14:24:32.379Z,1.05
2022-08-09T14:30:35.378Z,1.00
2022-08-09T14:32:19.566Z,1.08
2022-08-09T14:34:46.683Z,2.22
2022-08-09T14:37:28.180Z,0.90
2022-08-09T14:39:55.270Z,1.98
2022-08-09T14:42:30.204Z,1.35
2022-08-09T14:46:39.618Z,1.15
2022-08-09T14:48:00.404Z,0.90
2022-08-09T14:50:31.057Z,2.03
2022-08-09T14:52:58.798Z,1.10
2022-08-09T14:55:25.443Z,1.25
2022-08-09T14:57:55.818Z,1.25
2022-08-09T15:00:22.963Z,1.38
2022-08-09T15:02:52.084Z,0.80
2022-08-09T15:05:18.960Z,0.77
2022-08-09T15:07:55.925Z,0.75
2022-08-09T15:10:25.037Z,1.88
2022-08-09T15:12:52.481Z,1.10
2022-08-09T15:15:18.962Z,1.75
2022-08-09T15:17:49.895Z,1.00
2022-08-09T15:21:58.054Z,1.10
2022-08-09T15:24:00.921Z,1.42
2022-08-09T15:25:53.562Z,1.10
2022-08-09T15:28:28.002Z,0.82
2022-08-09T15:31:10.397Z,3.08
2022-08-09T15:34:17.408Z,1.13
2022-08-09T15:36:30.119Z,1.40
2022-08-09T15:38:58.824Z,2.90
2022-08-09T15:41:31.551Z,1.17
2022-08-09T15:44:02.345Z,1.07
2022-08-09T15:46:34.473Z,2.67
2022-08-09T15:49:21.686Z,1.70
2022-08-09T15:52:03.494Z,1.05
2022-08-09T15:54:46.448Z,1.13
2022-08-09T15:57:18.736Z,1.77
2022-08-09T15:59:52.063Z,1.15
2022-08-09T16:02:18.677Z,1.38
2022-08-09T16:04:53.421Z,1.20
2022-08-09T16:07:19.927Z,1.17
2022-08-09T16:09:57.810Z,1.77
2022-08-09T16:12:31.819Z,1.80
2022-08-09T16:14:58.724Z,1.13
2022-08-09T16:17:28.585Z,2.55
2022-08-09T16:20:04.457Z,1.45
2022-08-09T16:22:32.605Z,1.20
2022-08-09T16:25:01.539Z,2.17
2022-08-09T16:27:29.869Z,1.60
2022-08-09T16:30:00.724Z,2.03
2022-08-09T16:32:49.561Z,1.50
2022-08-09T16:35:56.411Z,1.05
2022-08-09T16:38:07.758Z,2.13
2022-08-09T16:40:40.512Z,1.63
2022-08-09T16:43:08.230Z,1.13
2022-08-09T16:45:35.051Z,1.52
2022-08-09T16:50:59.748Z,2.10
2022-08-09T16:53:34.691Z,1.70
2022-08-09T16:56:06.049Z,1.85
2022-08-09T16:58:37.142Z,1.45
2022-08-09T17:01:07.350Z,1.75
2022-08-09T17:03:34.734Z,5.63
2022-08-09T17:06:06.656Z,1.33
2022-08-09T17:09:01.519Z,1.83
2022-08-09T17:11:32.929Z,1.85
2022-08-09T17:14:25.661Z,1.33
2022-08-09T17:17:01.411Z,1.50
2022-08-09T17:19:46.662Z,1.45
2022-08-09T17:25:09.783Z,1.33
2022-08-09T17:27:38.622Z,1.83
2022-08-09T17:30:06.995Z,1.27
2022-08-09T17:32:40.013Z,1.67
2022-08-09T17:35:13.821Z,1.10
2022-08-09T17:38:11.838Z,1.85
2022-08-09T17:40:29.488Z,3.58
2022-08-09T17:42:59.674Z,1.08
2022-08-09T17:46:02.803Z,1.55
2022-08-09T17:48:28.454Z,1.25
2022-08-09T17:50:59.259Z,1.52
2022-08-09T17:53:35.420Z,1.90
2022-08-09T17:56:10.061Z,1.10
2022-08-09T17:58:36.618Z,1.90
2022-08-09T18:01:03.206Z,1.42
2022-08-09T18:03:31.896Z,3.05
2022-08-09T18:06:01.003Z,2.33
2022-08-09T18:08:28.378Z,2.40
2022-08-09T18:11:01.958Z,1.52
2022-08-09T18:13:42.932Z,3.58
2022-08-09T18:16:28.816Z,1.40
2022-08-09T18:18:56.232Z,1.52
2022-08-09T18:21:24.425Z,1.80
2022-08-09T18:24:10.847Z,1.20
2022-08-09T18:26:46.717Z,1.08
2022-08-09T18:30:40.979Z,2.45
2022-08-09T18:32:03.428Z,1.40
2022-08-09T18:34:34.821Z,2.00
2022-08-09T18:37:02.192Z,1.77
2022-08-09T18:39:32.636Z,2.35
2022-08-09T18:42:01.027Z,2.17
2022-08-09T18:44:27.754Z,2.10
2022-08-09T18:47:06.316Z,2.15
2022-08-09T18:49:43.550Z,2.45
2022-08-09T18:52:15.689Z,2.25
2022-08-09T18:54:49.520Z,1.77
2022-08-09T18:57:19.785Z,1.50
2022-08-09T18:59:51.962Z,1.55
2022-08-09T19:02:30.741Z,1.83
2022-08-09T19:05:15.277Z,2.38
2022-08-09T19:08:03.565Z,1.58
2022-08-09T19:10:37.333Z,1.83
2022-08-09T19:13:20.430Z,3.20
2022-08-09T19:15:56.823Z,2.47
2022-08-09T19:18:33.466Z,1.98
2022-08-09T19:21:09.873Z,1.60
2022-08-09T19:24:33.505Z,2.88
2022-08-09T19:26:29.503Z,2.58
2022-08-09T19:29:01.749Z,1.60
2022-08-09T19:31:30.755Z,1.40
2022-08-09T19:34:22.122Z,2.40
2022-08-09T19:36:55.413Z,2.85
2022-08-09T19:39:43.280Z,1.85
2022-08-09T19:42:09.401Z,1.90
2022-08-09T19:44:42.375Z,3.30
2022-08-09T19:47:08.931Z,2.45
2022-08-09T19:50:08.381Z,2.58
2022-08-09T19:52:26.088Z,2.20
2022-08-09T19:54:52.640Z,2.15
2022-08-09T19:57:19.507Z,1.98
2022-08-09T20:00:05.526Z,3.30
2022-08-09T20:04:12.328Z,3.92
2022-08-09T20:05:23.618Z,2.45
2022-08-09T20:07:59.739Z,2.03
2022-08-09T20:10:34.840Z,2.88
2022-08-09T20:13:05.197Z,2.45
2022-08-09T20:16:35.162Z,2.28
2022-08-09T20:18:22.768Z,2.22
2022-08-09T20:20:55.204Z,1.90
2022-08-09T20:23:23.112Z,2.90
2022-08-09T20:25:52.967Z,5.53
2022-08-09T20:28:27.657Z,1.85
2022-08-09T20:31:05.150Z,3.60
2022-08-09T20:33:39.065Z,3.22
2022-08-09T20:36:10.794Z,4.97
2022-08-09T20:41:34.647Z,3.95
2022-08-09T20:44:04.020Z,4.13
2022-08-09T20:46:43.302Z,2.55
2022-08-09T20:49:11.715Z,3.00
2022-08-09T20:51:41.417Z,3.38
2022-08-09T20:54:12.603Z,4.10
2022-08-09T20:56:43.600Z,2.40
2022-08-09T20:59:17.073Z,2.30
2022-08-09T21:01:50.948Z,2.08
2022-08-09T21:05:53.956Z,2.70
2022-08-09T21:07:12.254Z,2.90
2022-08-09T21:09:57.056Z,2.50
2022-08-09T21:15:13.914Z,3.38
2022-08-09T21:18:21.320Z,3.30
2022-08-09T21:20:30.261Z,2.80
2022-08-09T21:22:57.673Z,8.50
2022-08-09T21:25:44.123Z,2.78
2022-08-09T21:28:35.254Z,3.13
2022-08-09T21:31:13.637Z,3.35
2022-08-09T21:33:45.184Z,3.80
2022-08-09T21:36:21.173Z,2.70
2022-08-09T21:38:56.713Z,2.58
2022-08-09T21:41:59.820Z,3.30
2022-08-09T21:44:10.321Z,4.13
2022-08-09T21:46:36.824Z,3.20
2022-08-09T21:49:03.766Z,2.92
2022-08-09T21:51:35.833Z,2.50
2022-08-09T21:54:09.959Z,2.45
2022-08-09T21:56:44.613Z,6.40
2022-08-09T21:59:23.192Z,4.75
2022-08-09T22:02:00.279Z,3.65
2022-08-09T22:04:56.715Z,4.05
2022-08-09T22:07:23.253Z,4.47
2022-08-09T22:10:02.287Z,3.22
2022-08-09T22:12:30.518Z,2.67
2022-08-09T22:14:57.879Z,3.03
2022-08-09T22:17:24.380Z,2.92
2022-08-09T22:19:58.379Z,3.10
2022-08-09T22:22:27.827Z,3.45
2022-08-09T22:26:06.899Z,2.58
2022-08-09T22:27:42.152Z,2.83
2022-08-09T22:30:09.528Z,2.83
2022-08-09T22:32:36.019Z,3.03
2022-08-09T22:35:06.722Z,3.75
2022-08-09T22:38:07.373Z,2.63
2022-08-09T22:40:34.927Z,2.20
2022-08-09T22:43:16.051Z,2.38
2022-08-09T22:48:14.137Z,2.70
2022-08-09T22:48:35.697Z,2.50
2022-08-09T22:51:10.853Z,3.83
2022-08-09T22:54:02.691Z,2.67
2022-08-09T22:56:34.021Z,2.10
2022-08-09T22:59:58.050Z,2.53
2022-08-09T23:01:52.228Z,4.57
2022-08-09T23:04:19.176Z,3.28
2022-08-09T23:07:04.319Z,3.10
2022-08-09T23:09:38.230Z,2.70
2022-08-09T23:12:04.882Z,2.22
2022-08-09T23:14:41.287Z,2.38
2022-08-09T23:17:09.168Z,2.95
2022-08-09T23:20:06.903Z,3.15
2022-08-09T23:22:22.194Z,2.70
2022-08-09T23:24:48.938Z,4.45
2022-08-09T23:27:15.498Z,5.38
2022-08-09T23:29:42.006Z,4.28
2022-08-09T23:32:08.618Z,3.97
2022-08-09T23:34:35.164Z,2.47
2022-08-09T23:37:01.714Z,2.35
2022-08-09T23:39:28.265Z,2.10
2022-08-09T23:41:54.839Z,2.22
2022-08-09T23:44:21.516Z,2.60
2022-08-09T23:46:52.847Z,2.30
2022-08-09T23:49:25.541Z,2.50
2022-08-09T23:51:52.809Z,2.30
2022-08-09T23:54:19.838Z,2.25
2022-08-09T23:56:54.315Z,2.50
2022-08-09T23:59:23.833Z,2.40
